createdAt,value
2018-04-08T00:00:14.845Z,100341.80
2018-04-08T00:02:40.795Z,100336.96
2018-04-08T00:05:06.837Z,100331.86
2018-04-08T00:07:32.794Z,100340.42
2018-04-08T00:09:58.745Z,100329.04
2018-04-08T00:12:24.712Z,100334.14
2018-04-08T00:14:50.661Z,100325.16
2018-04-08T00:17:16.619Z,100323.84
2018-04-08T00:19:42.567Z,100329.19
2018-04-08T00:22:08.521Z,100320.59
2018-04-08T00:24:34.470Z,100318.42
2018-04-08T00:27:00.445Z,100328.72
2018-04-08T00:29:26.398Z,100315.88
2018-04-08T00:31:52.347Z,100319.01
2018-04-08T00:34:18.281Z,100318.92
2018-04-08T00:36:44.235Z,100317.11
2018-04-08T00:39:10.197Z,100307.95
2018-04-08T00:41:36.140Z,100310.34
2018-04-08T00:44:02.105Z,100307.13
2018-04-08T00:46:28.222Z,100306.22
2018-04-08T00:48:54.164Z,100301.38
2018-04-08T00:51:20.148Z,100296.92
2018-04-08T00:53:46.093Z,100294.87
2018-04-08T00:56:12.057Z,100298.92
2018-04-08T00:58:37.993Z,100301.44
2018-04-08T01:01:03.953Z,100293.88
2018-04-08T01:03:29.897Z,100289.66
2018-04-08T01:05:55.851Z,100297.08
2018-04-08T01:08:21.872Z,100295.02
2018-04-08T01:10:47.814Z,100296.40
2018-04-08T01:13:13.801Z,100294.58
2018-04-08T01:15:39.803Z,100301.33
2018-04-08T01:18:05.745Z,100300.33
2018-04-08T01:20:31.707Z,100294.00
2018-04-08T01:22:57.723Z,100295.20
2018-04-08T01:25:23.662Z,100299.75
2018-04-08T01:27:49.606Z,100302.65
2018-04-08T01:30:15.567Z,100297.81
2018-04-08T01:32:41.562Z,100295.96
2018-04-08T01:35:07.516Z,100292.03
2018-04-08T01:37:33.450Z,100295.26
2018-04-08T01:39:59.417Z,100289.80
2018-04-08T01:42:25.393Z,100295.72
2018-04-08T01:44:51.338Z,100298.45
2018-04-08T01:47:17.285Z,100303.64
2018-04-08T01:49:43.236Z,100297.95
2018-04-08T01:52:09.179Z,100298.19
2018-04-08T01:54:35.125Z,100293.59
2018-04-08T01:57:01.069Z,100293.70
2018-04-08T01:59:27.040Z,100291.20
2018-04-08T02:01:52.987Z,100282.86
2018-04-08T02:04:18.950Z,100286.23
2018-04-08T02:06:44.895Z,100281.33
2018-04-08T02:09:10.854Z,100280.69
2018-04-08T02:11:36.802Z,100282.65
2018-04-08T02:14:02.759Z,100285.05
2018-04-08T02:16:28.705Z,100283.15
2018-04-08T02:18:54.645Z,100281.27
2018-04-08T02:21:20.601Z,100280.69
2018-04-08T02:23:46.574Z,100279.08
2018-04-08T02:26:12.538Z,100271.97
2018-04-08T02:28:38.505Z,100276.93
2018-04-08T02:31:04.458Z,100277.25
2018-04-08T02:33:30.402Z,100272.77
2018-04-08T02:35:56.367Z,100273.00
2018-04-08T02:38:22.306Z,100268.90
2018-04-08T02:40:48.299Z,100270.30
2018-04-08T02:43:14.246Z,100263.71
2018-04-08T02:45:40.191Z,100269.34
2018-04-08T02:48:06.157Z,100260.83
2018-04-08T02:50:32.118Z,100264.06
2018-04-08T02:52:58.090Z,100260.40
2018-04-08T02:55:24.033Z,100266.14
2018-04-08T02:57:50.015Z,100260.81
2018-04-08T03:00:15.967Z,100260.22
2018-04-08T03:02:41.914Z,100261.86
2018-04-08T03:05:07.858Z,100265.50
2018-04-08T03:07:33.815Z,100261.22
2018-04-08T03:09:59.770Z,100260.72
2018-04-08T03:12:25.718Z,100257.93
2018-04-08T03:14:51.737Z,100262.00
2018-04-08T03:17:17.702Z,100256.20
2018-04-08T03:19:43.677Z,100262.09
2018-04-08T03:22:09.627Z,100260.92
2018-04-08T03:24:35.577Z,100258.20
2018-04-08T03:27:01.517Z,100259.92
2018-04-08T03:29:27.461Z,100245.88
2018-04-08T03:31:53.413Z,100251.33
2018-04-08T03:34:19.365Z,100246.96
2018-04-08T03:36:45.329Z,100250.02
2018-04-08T03:39:11.287Z,100246.87
2018-04-08T03:41:37.245Z,100245.12
2018-04-08T03:44:03.189Z,100244.22
2018-04-08T03:46:29.133Z,100240.58
2018-04-08T03:48:55.092Z,100239.91
2018-04-08T03:51:21.073Z,100237.30
2018-04-08T03:53:47.018Z,100239.34
2018-04-08T03:56:12.953Z,100237.37
2018-04-08T03:58:38.898Z,100235.59
2018-04-08T04:01:04.850Z,100232.95
2018-04-08T04:03:30.794Z,100231.04
2018-04-08T04:05:56.757Z,100240.37
2018-04-08T04:08:22.697Z,100238.87
2018-04-08T04:10:48.665Z,100230.80
2018-04-08T04:13:14.630Z,100233.12
2018-04-08T04:15:40.601Z,100236.00
2018-04-08T04:18:06.542Z,100231.56
2018-04-08T04:20:32.477Z,100230.63
2018-04-08T04:22:58.420Z,100228.55
2018-04-08T04:25:24.364Z,100228.99
2018-04-08T04:27:50.308Z,100226.83
2018-04-08T04:30:16.253Z,100231.43
2018-04-08T04:32:42.201Z,100231.76
2018-04-08T04:35:08.161Z,100232.58
2018-04-08T04:37:34.145Z,100231.67
2018-04-08T04:40:00.090Z,100243.02
2018-04-08T04:42:26.038Z,100235.77
2018-04-08T04:44:51.997Z,100241.22
2018-04-08T04:47:17.968Z,100236.20
2018-04-08T04:49:43.909Z,100235.83
2018-04-08T04:52:09.861Z,100242.66
2018-04-08T04:54:35.800Z,100240.25
2018-04-08T04:57:01.781Z,100239.11
2018-04-08T04:59:27.802Z,100238.52
2018-04-08T05:01:53.754Z,100235.56
2018-04-08T05:04:19.700Z,100234.06
2018-04-08T05:06:45.639Z,100234.56
2018-04-08T05:09:11.599Z,100228.38
2018-04-08T05:11:37.546Z,100235.95
2018-04-08T05:14:03.513Z,100232.34
2018-04-08T05:16:29.472Z,100225.98
2018-04-08T05:18:55.427Z,100237.20
2018-04-08T05:21:21.373Z,100239.34
2018-04-08T05:23:47.357Z,100234.22
2018-04-08T05:26:13.295Z,100240.84
2018-04-08T05:28:39.282Z,100241.87
2018-04-08T05:31:05.233Z,100240.99
2018-04-08T05:33:31.173Z,100240.58
2018-04-08T05:35:57.185Z,100248.99
2018-04-08T05:38:23.247Z,100255.27
2018-04-08T05:40:49.371Z,100261.59
2018-04-08T05:43:15.416Z,100262.22
2018-04-08T05:45:41.323Z,100266.59
2018-04-08T05:48:07.307Z,100271.92
2018-04-08T05:50:33.270Z,100275.97
2018-04-08T05:52:59.214Z,100272.66
2018-04-08T05:55:25.182Z,100273.56
2018-04-08T05:57:51.121Z,100274.44
2018-04-08T06:00:17.455Z,100270.19
2018-04-08T06:02:43.393Z,100271.92
2018-04-08T06:05:09.346Z,100270.03
2018-04-08T06:07:35.298Z,100267.30
2018-04-08T06:10:01.259Z,100267.71
2018-04-08T06:12:27.209Z,100271.06
2018-04-08T06:14:53.176Z,100270.80
2018-04-08T06:17:19.125Z,100273.50
2018-04-08T06:19:45.082Z,100262.70
2018-04-08T06:22:11.026Z,100252.58
2018-04-08T06:24:36.982Z,100254.37
2018-04-08T06:27:02.930Z,100249.44
2018-04-08T06:29:28.908Z,100249.51
2018-04-08T06:31:54.857Z,100258.16
2018-04-08T06:34:20.807Z,100263.69
2018-04-08T06:36:46.748Z,100262.28
2018-04-08T06:39:12.689Z,100267.99
2018-04-08T06:41:38.670Z,100267.33
2018-04-08T06:44:04.621Z,100263.53
2018-04-08T06:46:30.573Z,100271.05
2018-04-08T06:48:56.529Z,100267.92
2018-04-08T06:51:22.514Z,100265.74
2018-04-08T06:53:48.575Z,100269.30
2018-04-08T06:56:14.521Z,100253.95
2018-04-08T06:58:40.465Z,100261.52
2018-04-08T07:01:06.429Z,100261.36
2018-04-08T07:03:32.475Z,100261.63
2018-04-08T07:05:58.419Z,100261.36
2018-04-08T07:08:24.426Z,100259.16
2018-04-08T07:10:50.452Z,100266.17
2018-04-08T07:13:16.491Z,100264.95
2018-04-08T07:15:42.517Z,100265.12
2018-04-08T07:18:08.561Z,100258.16
2018-04-08T07:20:34.584Z,100263.50
2018-04-08T07:23:00.609Z,100252.80
2018-04-08T07:25:26.559Z,100255.27
2018-04-08T07:27:52.537Z,100253.30
2018-04-08T07:30:18.582Z,100248.26
2018-04-08T07:32:44.564Z,100246.34
2018-04-08T07:35:10.506Z,100245.75
2018-04-08T07:37:36.474Z,100239.41
2018-04-08T07:40:02.441Z,100246.69
2018-04-08T07:42:28.381Z,100246.75
2018-04-08T07:44:54.389Z,100254.09
2018-04-08T07:47:20.334Z,100254.04
2018-04-08T07:49:46.289Z,100260.20
2018-04-08T07:52:12.337Z,100266.75
2018-04-08T07:54:38.283Z,100272.52
2018-04-08T07:57:04.269Z,100271.42
2018-04-08T07:59:30.218Z,100273.83
2018-04-08T08:01:56.172Z,100268.13
2018-04-08T08:04:22.117Z,100266.14
2018-04-08T08:06:48.085Z,100267.89
2018-04-08T08:09:14.061Z,100270.01
2018-04-08T08:11:40.006Z,100269.69
2018-04-08T08:14:05.997Z,100266.75
2018-04-08T08:16:31.950Z,100267.50
2018-04-08T08:18:57.943Z,100263.80
2018-04-08T08:21:23.886Z,100262.84
2018-04-08T08:23:49.849Z,100272.77
2018-04-08T08:26:15.802Z,100273.97
2018-04-08T08:28:41.749Z,100275.38
2018-04-08T08:31:07.716Z,100279.43
2018-04-08T08:33:33.677Z,100277.02
2018-04-08T08:35:59.677Z,100277.23
2018-04-08T08:38:25.625Z,100274.41
2018-04-08T08:40:51.587Z,100283.34
2018-04-08T08:43:17.627Z,100276.83
2018-04-08T08:45:43.583Z,100273.83
2018-04-08T08:48:09.552Z,100275.83
2018-04-08T08:50:35.514Z,100276.41
2018-04-08T08:53:01.559Z,100281.08
2018-04-08T08:55:27.513Z,100283.42
2018-04-08T08:57:53.517Z,100279.55
2018-04-08T09:00:19.483Z,100279.34
2018-04-08T09:02:45.421Z,100281.45
2018-04-08T09:05:11.369Z,100280.59
2018-04-08T09:07:37.320Z,100279.45
2018-04-08T09:10:03.273Z,100276.16
2018-04-08T09:12:29.236Z,100269.91
2018-04-08T09:14:55.254Z,100275.83
2018-04-08T09:17:21.205Z,100272.45
2018-04-08T09:19:47.192Z,100266.66
2018-04-08T09:22:13.126Z,100261.14
2018-04-08T09:24:39.078Z,100267.74
2018-04-08T09:27:05.062Z,100263.78
2018-04-08T09:29:31.040Z,100258.61
2018-04-08T09:31:57.056Z,100260.25
2018-04-08T09:34:22.973Z,100255.89
2018-04-08T09:36:48.921Z,100261.92
2018-04-08T09:39:14.958Z,100260.25
2018-04-08T09:41:40.910Z,100262.91
2018-04-08T09:44:06.886Z,100254.65
2018-04-08T09:46:32.825Z,100254.09
2018-04-08T09:48:58.809Z,100247.55
2018-04-08T09:51:24.757Z,100247.37
2018-04-08T09:53:50.729Z,100245.14
2018-04-08T09:56:16.699Z,100242.82
2018-04-08T09:58:42.760Z,100241.59
2018-04-08T10:01:08.858Z,100237.13
2018-04-08T10:03:35.042Z,100244.30
2018-04-08T10:06:00.986Z,100237.55
2018-04-08T10:08:26.938Z,100241.18
2018-04-08T10:10:52.930Z,100236.06
2018-04-08T10:13:18.884Z,100231.52
2018-04-08T10:15:44.981Z,100229.35
2018-04-08T10:18:11.027Z,100232.66
2018-04-08T10:20:37.043Z,100228.28
2018-04-08T10:23:03.034Z,100230.20
2018-04-08T10:25:28.983Z,100231.00
2018-04-08T10:27:55.032Z,100225.48
2018-04-08T10:30:21.111Z,100222.67
2018-04-08T10:32:47.227Z,100217.70
2018-04-08T10:35:14.862Z,100220.75
2018-04-08T10:37:40.967Z,100218.52
2018-04-08T10:40:07.134Z,100214.09
2018-04-08T10:42:33.086Z,100217.39
2018-04-08T10:44:59.069Z,100208.58
2018-04-08T10:47:25.091Z,100214.77
2018-04-08T10:49:51.472Z,100213.27
2018-04-08T10:52:17.466Z,100211.53
2018-04-08T10:54:43.557Z,100203.38
2018-04-08T10:57:09.521Z,100199.15
2018-04-08T10:59:35.465Z,100200.39
2018-04-08T11:02:01.494Z,100195.30
2018-04-08T11:04:27.519Z,100195.80
2018-04-08T11:06:53.466Z,100188.55
2018-04-08T11:09:19.505Z,100189.94
2018-04-08T11:11:45.468Z,100182.56
2018-04-08T11:14:11.411Z,100182.39
2018-04-08T11:16:37.369Z,100176.30
2018-04-08T11:19:03.382Z,100178.45
2018-04-08T11:21:29.353Z,100178.80
2018-04-08T11:23:55.344Z,100170.60
2018-04-08T11:26:21.302Z,100170.19
2018-04-08T11:28:47.258Z,100164.66
2018-04-08T11:31:13.237Z,100168.94
2018-04-08T11:33:39.229Z,100168.38
2018-04-08T11:36:05.177Z,100169.55
2018-04-08T11:38:31.120Z,100168.52
2018-04-08T11:40:57.093Z,100161.19
2018-04-08T11:43:23.051Z,100165.23
2018-04-08T11:45:49.006Z,100161.84
2018-04-08T11:48:14.970Z,100160.05
2018-04-08T11:50:40.967Z,100162.20
2018-04-08T11:53:06.909Z,100156.23
2018-04-08T11:55:32.853Z,100150.81
2018-04-08T11:57:58.801Z,100147.56
2018-04-08T12:00:24.773Z,100151.30
2018-04-08T12:02:51.285Z,100150.64
2018-04-08T12:05:17.333Z,100149.82
2018-04-08T12:07:43.294Z,100148.34
2018-04-08T12:10:09.564Z,100145.78
2018-04-08T12:12:35.701Z,100141.82
2018-04-08T12:15:01.703Z,100132.98
2018-04-08T12:17:27.672Z,100133.81
2018-04-08T12:19:53.649Z,100129.25
2018-04-08T12:22:19.601Z,100125.47
2018-04-08T12:24:45.576Z,100124.86
2018-04-08T12:27:11.565Z,100123.95
2018-04-08T12:29:37.558Z,100129.89
2018-04-08T12:32:03.498Z,100126.92
2018-04-08T12:34:29.481Z,100120.62
2018-04-08T12:36:55.470Z,100117.20
2018-04-08T12:39:21.450Z,100115.09
2018-04-08T12:41:47.394Z,100116.70
2018-04-08T12:44:13.348Z,100111.73
2018-04-08T12:46:39.302Z,100112.31
2018-04-08T12:49:05.310Z,100101.24
2018-04-08T12:51:31.273Z,100104.13
2018-04-08T12:53:57.272Z,100097.63
2018-04-08T12:56:23.200Z,100095.94
2018-04-08T12:58:49.169Z,100096.78
2018-04-08T13:01:15.099Z,100094.39
2018-04-08T13:03:41.049Z,100095.08
2018-04-08T13:06:07.009Z,100090.61
2018-04-08T13:08:32.977Z,100081.68
2018-04-08T13:10:58.954Z,100078.06
2018-04-08T13:13:24.901Z,100079.61
2018-04-08T13:15:50.853Z,100073.28
2018-04-08T13:18:16.797Z,100066.77
2018-04-08T13:20:42.772Z,100070.25
2018-04-08T13:23:08.710Z,100064.69
2018-04-08T13:25:34.666Z,100061.41
2018-04-08T13:28:00.625Z,100063.16
2018-04-08T13:30:26.588Z,100056.55
2018-04-08T13:32:52.556Z,100055.64
2018-04-08T13:35:18.503Z,100050.87
2018-04-08T13:37:44.449Z,100051.36
2018-04-08T13:40:10.402Z,100046.39
2018-04-08T13:42:36.340Z,100042.19
2018-04-08T13:45:02.289Z,100040.07
2018-04-08T13:47:28.225Z,100035.53
2018-04-08T13:49:54.171Z,100038.48
2018-04-08T13:52:20.131Z,100036.27
2018-04-08T13:54:46.092Z,100031.89
2018-04-08T13:57:12.062Z,100030.16
2018-04-08T13:59:38.015Z,100023.16
2018-04-08T14:02:03.966Z,100029.34
2018-04-08T14:04:29.941Z,100025.77
2018-04-08T14:06:55.894Z,100016.55
2018-04-08T14:09:21.841Z,100019.50
2018-04-08T14:11:47.804Z,100016.14
2018-04-08T14:14:13.742Z,100009.44
2018-04-08T14:16:39.721Z,100009.19
2018-04-08T14:19:05.678Z,100012.08
2018-04-08T14:21:31.755Z,100011.18
2018-04-08T14:23:57.737Z,100007.04
2018-04-08T14:26:23.679Z,100002.91
2018-04-08T14:28:49.641Z,100004.90
2018-04-08T14:31:15.666Z,99998.52
2018-04-08T14:33:41.627Z,99996.22
2018-04-08T14:36:07.597Z,99989.78
2018-04-08T14:38:33.551Z,99995.22
2018-04-08T14:40:59.568Z,99994.30
2018-04-08T14:43:25.549Z,99990.19
2018-04-08T14:45:51.489Z,99981.41
2018-04-08T14:48:17.478Z,99980.34
2018-04-08T14:50:43.439Z,99981.41
2018-04-08T14:53:09.411Z,99980.38
2018-04-08T14:55:35.374Z,99980.78
2018-04-08T14:58:01.365Z,99977.02
2018-04-08T15:00:27.391Z,99968.59
2018-04-08T15:02:53.350Z,99966.20
2018-04-08T15:05:19.288Z,99968.34
2018-04-08T15:07:45.224Z,99971.89
2018-04-08T15:10:11.165Z,99969.50
2018-04-08T15:12:37.103Z,99971.06
2018-04-08T15:15:03.058Z,99969.27
2018-04-08T15:17:28.995Z,99970.98
2018-04-08T15:19:54.940Z,99968.77
2018-04-08T15:22:20.883Z,99974.53
2018-04-08T15:24:46.874Z,99971.57
2018-04-08T15:27:12.814Z,99974.94
2018-04-08T15:29:38.826Z,99966.04
2018-04-08T15:32:04.781Z,99964.15
2018-04-08T15:34:30.737Z,99962.52
2018-04-08T15:36:56.693Z,99964.40
2018-04-08T15:39:22.738Z,99964.37
2018-04-08T15:41:48.751Z,99964.20
2018-04-08T15:44:14.706Z,99962.92
2018-04-08T15:46:40.725Z,99962.52
2018-04-08T15:49:06.748Z,99963.17
2018-04-08T15:51:32.765Z,99963.33
2018-04-08T15:53:58.715Z,99959.97
2018-04-08T15:56:24.654Z,99960.59
2018-04-08T15:58:50.651Z,99960.84
2018-04-08T16:01:16.601Z,99962.16
2018-04-08T16:03:42.580Z,99959.93
2018-04-08T16:06:08.526Z,99962.83
2018-04-08T16:08:34.465Z,99959.28
2018-04-08T16:11:00.488Z,99963.73
2018-04-08T16:13:26.425Z,99964.06
2018-04-08T16:15:52.361Z,99962.92
2018-04-08T16:18:18.316Z,99963.14
2018-04-08T16:20:44.281Z,99955.98
2018-04-08T16:23:10.252Z,99960.00
2018-04-08T16:25:36.285Z,99964.15
2018-04-08T16:28:02.289Z,99961.91
2018-04-08T16:30:28.326Z,99962.42
2018-04-08T16:32:54.273Z,99966.69
2018-04-08T16:35:20.272Z,99962.41
2018-04-08T16:37:46.214Z,99966.38
2018-04-08T16:40:12.132Z,99963.39
2018-04-08T16:42:38.093Z,99961.34
2018-04-08T16:45:04.030Z,99961.25
2018-04-08T16:47:29.976Z,99960.59
2018-04-08T16:49:56.018Z,99965.80
2018-04-08T16:52:21.961Z,99969.51
2018-04-08T16:54:47.907Z,99965.30
2018-04-08T16:57:13.890Z,99966.72
2018-04-08T16:59:39.835Z,99967.09
2018-04-08T17:02:05.802Z,99967.19
2018-04-08T17:04:31.775Z,99975.70
2018-04-08T17:06:57.713Z,99973.31
2018-04-08T17:09:23.707Z,99975.20
2018-04-08T17:11:49.653Z,99972.63
2018-04-08T17:14:15.585Z,99976.94
2018-04-08T17:16:41.578Z,99982.12
2018-04-08T17:19:07.522Z,99979.57
2018-04-08T17:21:33.477Z,99983.69
2018-04-08T17:23:59.526Z,99981.14
2018-04-08T17:26:25.498Z,99977.09
2018-04-08T17:28:51.456Z,99978.50
2018-04-08T17:31:17.418Z,99980.34
2018-04-08T17:33:43.371Z,99979.91
2018-04-08T17:36:09.345Z,99983.20
2018-04-08T17:38:35.390Z,99984.62
2018-04-08T17:41:01.370Z,99987.25
2018-04-08T17:43:27.322Z,99986.59
2018-04-08T17:45:53.263Z,99988.82
2018-04-08T17:48:19.212Z,99986.50
2018-04-08T17:50:45.166Z,99993.77
2018-04-08T17:53:11.112Z,99991.38
2018-04-08T17:55:37.052Z,99982.48
2018-04-08T17:58:03.045Z,99984.43
2018-04-08T18:00:28.989Z,99987.76
2018-04-08T18:02:54.996Z,99990.80
2018-04-08T18:05:20.949Z,99992.19
2018-04-08T18:07:46.912Z,99993.86
2018-04-08T18:10:12.870Z,99992.86
2018-04-08T18:12:38.823Z,99989.62
2018-04-08T18:15:04.827Z,99997.39
2018-04-08T18:17:30.766Z,100002.35
2018-04-08T18:19:56.746Z,100005.05
2018-04-08T18:22:22.721Z,100000.52
2018-04-08T18:24:48.735Z,100006.39
2018-04-08T18:27:14.676Z,100006.30
2018-04-08T18:29:40.627Z,100007.06
2018-04-08T18:32:06.594Z,100009.20
2018-04-08T18:34:32.562Z,100014.55
2018-04-08T18:36:58.601Z,100014.06
2018-04-08T18:39:24.551Z,100018.18
2018-04-08T18:41:50.514Z,100020.16
2018-04-08T18:44:16.518Z,100021.48
2018-04-08T18:46:42.460Z,100020.89
2018-04-08T18:49:08.409Z,100027.18
2018-04-08T18:51:34.373Z,100030.55
2018-04-08T18:54:00.370Z,100030.95
2018-04-08T18:56:26.315Z,100034.52
2018-04-08T18:58:52.264Z,100031.95
2018-04-08T19:01:18.226Z,100033.10
2018-04-08T19:03:44.169Z,100034.83
2018-04-08T19:06:10.220Z,100036.99
2018-04-08T19:08:36.166Z,100040.11
2018-04-08T19:11:02.131Z,100038.29
2018-04-08T19:13:28.090Z,100037.16
2018-04-08T19:15:54.029Z,100040.85
2018-04-08T19:18:19.988Z,100039.05
2018-04-08T19:20:45.938Z,100041.61
2018-04-08T19:23:11.897Z,100046.07
2018-04-08T19:25:37.851Z,100048.58
2018-04-08T19:28:03.841Z,100053.52
2018-04-08T19:30:29.804Z,100052.00
2018-04-08T19:32:55.770Z,100051.49
2018-04-08T19:35:21.757Z,100055.55
2018-04-08T19:37:47.705Z,100051.75
2018-04-08T19:40:13.663Z,100052.32
2018-04-08T19:42:39.682Z,100053.41
2018-04-08T19:45:05.666Z,100055.39
2018-04-08T19:47:31.621Z,100052.32
2018-04-08T19:49:57.686Z,100059.41
2018-04-08T19:52:23.630Z,100059.02
2018-04-08T19:54:49.583Z,100055.70
2018-04-08T19:57:15.567Z,100057.68
2018-04-08T19:59:41.517Z,100056.86
2018-04-08T20:02:07.470Z,100052.27
2018-04-08T20:04:33.516Z,100047.04
2018-04-08T20:06:59.450Z,100051.00
2018-04-08T20:09:25.378Z,100048.11
2018-04-08T20:11:51.327Z,100044.86
2018-04-08T20:14:18.296Z,100042.55
2018-04-08T20:16:44.235Z,100041.02
2018-04-08T20:19:10.227Z,100038.47
2018-04-08T20:21:36.175Z,100034.10
2018-04-08T20:24:02.121Z,100038.98
2018-04-08T20:26:28.093Z,100039.81
2018-04-08T20:28:54.093Z,100033.70
2018-04-08T20:31:20.067Z,100035.33
2018-04-08T20:33:46.124Z,100040.52
2018-04-08T20:36:12.082Z,100037.66
2018-04-08T20:38:38.047Z,100033.84
2018-04-08T20:41:04.090Z,100032.28
2018-04-08T20:43:30.038Z,100030.45
2018-04-08T20:45:55.984Z,100036.99
2018-04-08T20:48:22.076Z,100042.33
2018-04-08T20:50:48.061Z,100041.43
2018-04-08T20:53:14.021Z,100037.66
2018-04-08T20:55:40.071Z,100034.30
2018-04-08T20:58:06.049Z,100025.88
2018-04-08T21:00:32.021Z,100034.42
2018-04-08T21:02:57.988Z,100037.97
2018-04-08T21:05:23.922Z,100032.94
2018-04-08T21:07:49.884Z,100033.09
2018-04-08T21:10:15.919Z,100031.95
2018-04-08T21:12:41.918Z,100036.74
2018-04-08T21:15:07.843Z,100034.17
2018-04-08T21:17:34.010Z,100034.77
2018-04-08T21:19:59.991Z,100038.67
2018-04-08T21:22:26.024Z,100034.91
2018-04-08T21:24:51.997Z,100039.12
2018-04-08T21:27:17.956Z,100041.77
2018-04-08T21:29:43.911Z,100039.47
2018-04-08T21:32:09.874Z,100037.80
2018-04-08T21:34:35.818Z,100030.29
2018-04-08T21:37:01.788Z,100032.21
2018-04-08T21:39:27.749Z,100030.63
2018-04-08T21:41:53.727Z,100022.88
2018-04-08T21:44:19.735Z,100022.12
2018-04-08T21:46:45.717Z,100027.20
2018-04-08T21:49:11.643Z,100030.38
2018-04-08T21:51:37.620Z,100029.88
2018-04-08T21:54:03.577Z,100034.50
2018-04-08T21:56:29.527Z,100040.13
2018-04-08T21:58:55.515Z,100036.17
2018-04-08T22:01:21.460Z,100031.70
2018-04-08T22:03:47.398Z,100032.11
2018-04-08T22:06:13.350Z,100032.62
2018-04-08T22:08:39.317Z,100029.41
2018-04-08T22:11:05.278Z,100033.53
2018-04-08T22:13:31.225Z,100034.50
2018-04-08T22:15:57.165Z,100035.34
2018-04-08T22:18:23.105Z,100039.31
2018-04-08T22:20:49.045Z,100035.41
2018-04-08T22:23:15.010Z,100038.71
2018-04-08T22:25:40.972Z,100041.19
2018-04-08T22:28:06.902Z,100046.47
2018-04-08T22:30:32.861Z,100044.49
2018-04-08T22:32:58.865Z,100043.99
2018-04-08T22:35:24.834Z,100049.77
2018-04-08T22:37:50.811Z,100053.25
2018-04-08T22:40:16.781Z,100052.25
2018-04-08T22:42:42.734Z,100059.25
2018-04-08T22:45:08.693Z,100055.14
2018-04-08T22:47:34.637Z,100055.70
2018-04-08T22:50:00.591Z,100051.00
2018-04-08T22:52:26.597Z,100055.31
2018-04-08T22:54:52.536Z,100052.25
2018-04-08T22:57:18.481Z,100057.68
2018-04-08T22:59:44.446Z,100057.12
2018-04-08T23:02:10.392Z,100058.10
2018-04-08T23:04:36.366Z,100056.88
2018-04-08T23:07:02.358Z,100051.50
2018-04-08T23:09:28.357Z,100055.89
2018-04-08T23:11:54.308Z,100050.52
2018-04-08T23:14:20.293Z,100051.43
2018-04-08T23:16:46.271Z,100044.83
2018-04-08T23:19:12.242Z,100047.55
2018-04-08T23:21:38.218Z,100049.53
2018-04-08T23:24:04.169Z,100047.13
2018-04-08T23:26:30.111Z,100046.72
2018-04-08T23:28:56.064Z,100050.10
2018-04-08T23:31:22.142Z,100048.22
2018-04-08T23:33:48.082Z,100055.39
2018-04-08T23:36:14.037Z,100052.98
2018-04-08T23:38:39.974Z,100055.46
2018-04-08T23:41:05.937Z,100054.30
2018-04-08T23:43:31.888Z,100050.61
2018-04-08T23:45:57.842Z,100053.06
2018-04-08T23:48:23.784Z,100049.36
2018-04-08T23:50:49.731Z,100048.94
2018-04-08T23:53:15.676Z,100048.13
2018-04-08T23:55:41.617Z,100052.91
2018-04-08T23:58:07.583Z,100047.30
